Flight Track Log - Related Links

Times and Time Zones

All times are in EDT time to prevent confusion due to time zone crossing. See the SWA1524 flight status page for this flight to view local times or setup timezone preferences in your user account.

Time Position Orientation Groundspeed Altitude Reporting Facility
EDT Latitude Longitude Course Direction KTS MPH feet Rate Location/Type
Mon 01:11:40 PM 42.3667 -70.9667 90° East 180 207 900  Level KA90
Mon 01:12:16 PM 42.3667 -70.9333 90° East 177 204 1,800 2,000 Climbing KA90
Mon 01:13:16 PM 42.3833 -70.8500 75° East 241 277 4,100 2,550 Climbing KA90
Mon 01:14:16 PM 42.3833 -70.7500 90° East 290 334 6,900 2,889 Climbing KA90
Mon 01:15:04 PM 42.3147 -70.7414 175° South 285 328 9,300 2,556 Climbing Boston Center
Mon 01:16:04 PM 42.2911 -70.8375 252° West 285 328 11,500 2,250 Climbing Boston Center
Mon 01:17:04 PM 42.2950 -70.9608 272° West 299 344 13,800 2,400 Climbing Boston Center
Mon 01:18:04 PM 42.3089 -71.0897 278° West 335 386 16,300 2,100 Climbing Boston Center
Mon 01:19:04 PM 42.3208 -71.2242 277° West 357 411 18,000 1,650 Climbing Boston Center
Mon 01:20:04 PM 42.3389 -71.3617 280° West 372 428 19,600 1,500 Climbing Boston Center
Mon 01:21:04 PM 42.3444 -71.5075 273° West 377 434 21,000 1,600 Climbing Boston Center
Mon 01:22:04 PM 42.3164 -71.6594 256° West 390 449 22,800 1,550 Climbing Boston Center
Mon 01:23:04 PM 42.2944 -71.8031 258° West 402 463 24,100 1,050 Climbing Boston Center
Mon 01:24:04 PM 42.2661 -71.9575 256° West 402 463 24,900 1,000 Climbing Boston Center
Mon 01:25:16 PM 42.2039 -72.0953 239° Southwest 422 486 26,300 1,227 Climbing Boston Center
Mon 01:26:16 PM 42.1272 -72.2664 239° Southwest 435 501 27,600 1,150 Climbing Boston Center
Mon 01:27:16 PM 42.0647 -72.4064 239° Southwest 447 514 28,600 1,050 Climbing Boston Center
Mon 01:28:16 PM 41.9961 -72.5575 239° Southwest 459 528 29,700 1,500 Climbing Boston Center
Mon 01:29:16 PM 41.9375 -72.6997 241° Southwest 459 528 31,600 1,500 Climbing Boston Center
Mon 01:30:16 PM 41.8872 -72.8108 239° Southwest 453 521 32,700 1,150 Climbing Boston Center
Mon 01:31:16 PM 41.8072 -72.9775 237° Southwest 448 516 33,900 1,000 Climbing Boston Center
Mon 01:32:40 PM 41.7189 -73.1436 235° Southwest 460 529 35,100 833 Climbing Boston Center
Mon 01:33:40 PM 41.6322 -73.3039 234° Southwest 460 529 35,900 342 Climbing Boston Center
Mon 01:35:18 PM 41.5211 -73.5172 235° Southwest 448 516 36,000 38 Climbing New Center
Mon 01:36:18 PM 41.4472 -73.6497 233° Southwest 453 521 36,000  Level New Center
Mon 01:37:19 PM 41.3753 -73.7819 234° Southwest 453 521 36,000  Level New Center
Mon 01:38:19 PM 41.3050 -73.9142 235° Southwest 446 513 36,000  Level New Center
Mon 01:39:20 PM 41.2306 -74.0486 234° Southwest 446 513 36,000  Level New Center
Mon 01:40:20 PM 41.1583 -74.1800 234° Southwest 446 513 36,000  Level New Center
Mon 01:41:20 PM 41.0836 -74.3083 232° Southwest 446 513 36,000  Level New Center
Mon 01:42:18 PM 41.0108 -74.4392 234° Southwest 446 513 36,000  Level New Center
Mon 01:43:18 PM 40.9381 -74.5700 234° Southwest 451 519 36,000  Level New Center
Mon 01:44:19 PM 40.8669 -74.7031 235° Southwest 451 519 36,000  Level New Center
Mon 01:45:19 PM 40.7939 -74.8306 233° Southwest 451 519 36,000  Level New Center
Mon 01:46:20 PM 40.7328 -74.9692 240° Southwest 445 512 36,000  Level New Center
Mon 01:47:18 PM 40.6669 -75.1156 239° Southwest 445 512 36,000  Level New Center
Mon 01:48:18 PM 40.6036 -75.2539 239° Southwest 450 518 36,000  Level New Center
Mon 01:49:19 PM 40.5400 -75.3917 239° Southwest 450 518 36,000  Level New Center
Mon 01:50:20 PM 40.4781 -75.5350 240° Southwest 450 518 36,000  Level New Center
Mon 01:51:18 PM 40.4186 -75.6589 238° Southwest 459 528 36,000  Level New Center
Mon 01:52:18 PM 40.3567 -75.7961 239° Southwest 454 522 36,000  Level New Center
Mon 01:53:19 PM 40.2792 -75.9483 236° Southwest 454 522 36,000  Level New Center
Mon 01:54:19 PM 40.2144 -76.0903 239° Southwest 459 528 36,000  Level New Center
Mon 01:55:20 PM 40.1672 -76.2144 244° Southwest 454 522 36,000  Level New Center
Mon 01:56:18 PM 40.1122 -76.3647 244° Southwest 454 522 36,000  Level New Center
Mon 01:58:23 PM 40.0047 -76.6639 245° Southwest 460 529 36,000  Level Washington Center
Mon 01:59:21 PM 39.9514 -76.8122 245° Southwest 460 529 36,000  Level Washington Center
Mon 02:00:21 PM 39.8911 -76.9678 243° Southwest 455 524 36,000  Level Washington Center
Mon 02:01:22 PM 39.8394 -77.1156 246° West 455 524 36,000  Level Washington Center
Mon 02:02:23 PM 39.7856 -77.2628 245° Southwest 455 524 36,000  Level Washington Center
Mon 02:03:21 PM 39.7314 -77.4072 244° Southwest 455 524 36,000  Level Washington Center
Mon 02:04:22 PM 39.6789 -77.5544 245° Southwest 455 524 36,000  Level Washington Center
Mon 02:05:22 PM 39.6244 -77.7011 244° Southwest 455 524 36,000  Level Washington Center
Mon 02:06:23 PM 39.5675 -77.8475 243° Southwest 460 529 36,000  Level Washington Center
Mon 02:07:23 PM 39.5125 -77.9964 244° Southwest 460 529 36,000  Level Washington Center
Mon 02:08:21 PM 39.4597 -78.1397 245° Southwest 460 529 36,000  Level Washington Center
Mon 02:09:22 PM 39.4044 -78.2856 244° Southwest 460 529 36,000  Level Washington Center
Mon 02:10:22 PM 39.3489 -78.4311 244° Southwest 460 529 36,000  Level Washington Center
Mon 02:11:22 PM 39.2956 -78.5739 244° Southwest 460 529 36,000  Level Washington Center
Mon 02:12:23 PM 39.2378 -78.7161 242° Southwest 460 529 36,000  Level Washington Center
Mon 02:13:21 PM 39.1839 -78.8586 244° Southwest 455 524 36,000  Level Washington Center
Mon 02:14:22 PM 39.1278 -79.0006 243° Southwest 455 524 36,000  Level Washington Center
Mon 02:15:22 PM 39.0736 -79.1425 244° Southwest 450 518 36,000  Level Washington Center
Mon 02:16:23 PM 39.0172 -79.2867 243° Southwest 450 518 36,000  Level Washington Center
Mon 02:17:23 PM 38.9608 -79.4253 242° Southwest 450 518 36,000  Level Washington Center
Mon 02:18:21 PM 38.9039 -79.5664 243° Southwest 445 512 36,000  Level Washington Center
Mon 02:19:21 PM 38.8511 -79.7128 245° Southwest 451 519 36,000  Level Washington Center
Mon 02:20:55 PM 38.7633 -79.9219 242° Southwest 447 514 36,000  Level Indianapolis Center
Mon 02:21:56 PM 38.7069 -80.0631 243° Southwest 444 511 36,000  Level Indianapolis Center
Mon 02:22:58 PM 38.6547 -80.2069 245° Southwest 444 511 36,000  Level Indianapolis Center
Mon 02:24:00 PM 38.6253 -80.3622 256° West 449 517 36,000  Level Indianapolis Center
Mon 02:25:02 PM 38.5972 -80.5158 257° West 445 512 36,000  Level Indianapolis Center
Mon 02:26:03 PM 38.5594 -80.6683 252° West 449 517 36,000  Level Indianapolis Center
Mon 02:27:05 PM 38.5150 -80.8508 253° West 448 516 36,000  Level Indianapolis Center
Mon 02:28:07 PM 38.4783 -81.0044 253° West 450 518 36,000  Level Indianapolis Center
Mon 02:29:09 PM 38.4386 -81.1592 252° West 453 521 36,000  Level Indianapolis Center
Mon 02:30:11 PM 38.3969 -81.3256 252° West 455 524 36,000  Level Indianapolis Center
Mon 02:31:12 PM 38.3619 -81.4703 253° West 457 526 36,000  Level Indianapolis Center
Mon 02:32:14 PM 38.3231 -81.6275 253° West 460 529 36,000  Level Indianapolis Center
Mon 02:33:16 PM 38.2831 -81.7817 252° West 457 526 36,000  Level Indianapolis Center
Mon 02:34:18 PM 38.2442 -81.9383 253° West 461 531 36,000  Level Indianapolis Center
Mon 02:35:20 PM 38.2050 -82.0944 252° West 463 533 36,000  Level Indianapolis Center
Mon 02:36:21 PM 38.1644 -82.2492 252° West 461 531 36,000  Level Indianapolis Center
Mon 02:37:23 PM 38.1142 -82.4342 251° West 461 531 36,000  Level Indianapolis Center
Mon 02:38:25 PM 38.0514 -82.5742 240° Southwest 459 528 36,000  Level Indianapolis Center
Mon 02:39:27 PM 37.9881 -82.7158 240° Southwest 461 531 36,000  Level Indianapolis Center
Mon 02:40:29 PM 37.9258 -82.8572 241° Southwest 460 529 36,000  Level Indianapolis Center
Mon 02:41:31 PM 37.8628 -82.9986 241° Southwest 462 532 36,000  Level Indianapolis Center
Mon 02:42:32 PM 37.7886 -83.1633 240° Southwest 462 532 36,000 -244 Level Indianapolis Center
Mon 02:43:34 PM 37.7261 -83.3033 241° Southwest 460 529 35,500 -726 Descending Indianapolis Center
Mon 02:44:36 PM 37.6617 -83.4442 240° Southwest 462 532 34,500 -726 Descending Indianapolis Center
Mon 02:45:38 PM 37.5989 -83.5839 240° Southwest 460 529 34,000 -242 Descending Indianapolis Center
Mon 02:46:40 PM 37.5331 -83.7250 240° Southwest 466 536 34,000  Level Indianapolis Center
Mon 02:47:41 PM 37.4611 -83.8581 236° Southwest 465 535 34,000 -390 Level Indianapolis Center
Mon 02:48:43 PM 37.3639 -84.0064 231° Southwest 470 541 33,200 -823 Descending Indianapolis Center
Mon 02:49:45 PM 37.2825 -84.1331 231° Southwest 469 540 32,300 -919 Descending Indianapolis Center
Mon 02:50:47 PM 37.2028 -84.2589 232° Southwest 463 533 31,300 -919 Descending Indianapolis Center
Mon 02:51:49 PM 37.1225 -84.3869 232° Southwest 467 537 30,400 -919 Descending Indianapolis Center
Mon 02:52:51 PM 37.0561 -84.5258 239° Southwest 468 539 29,400 -976 Descending Indianapolis Center
Mon 02:53:52 PM 37.0067 -84.6769 248° West 460 529 28,400 -976 Descending Indianapolis Center
Mon 02:54:54 PM 36.9544 -84.8247 246° West 464 534 27,400 -1,016 Descending Indianapolis Center
Mon 02:55:56 PM 36.8942 -84.9992 247° West 459 528 26,300 -1,065 Descending Indianapolis Center
Mon 02:56:58 PM 36.8419 -85.1433 246° West 457 526 25,200 -1,113 Descending Indianapolis Center
Mon 02:58:00 PM 36.7917 -85.2836 246° West 447 514 24,000 -1,645 Descending Indianapolis Center
Mon 02:59:02 PM 36.7428 -85.4186 246° West 429 494 21,800 -2,177 Descending Indianapolis Center
Mon 03:00:04 PM 36.6856 -85.5400 240° Southwest 410 472 19,500 -2,195 Descending Indianapolis Center
Mon 03:01:05 PM 36.6289 -85.6594 239° Southwest 403 464 17,300 -2,537 Descending Indianapolis Center
Mon 03:02:07 PM 36.5625 -85.8003 240° Southwest 396 456 14,300 -2,613 Descending Indianapolis Center
Mon 03:03:09 PM 36.5139 -85.9028 239° Southwest 390 449 11,900 -1,935 Descending Indianapolis Center
Mon 03:04:11 PM 36.4603 -86.0131 239° Southwest 374 430 10,300 -1,113 Descending Indianapolis Center
Mon 03:05:13 PM 36.4214 -86.1294 247° West 306 352 9,600 -964 Descending Indianapolis Center
Mon 03:06:03 PM 36.3997 -86.2058 251° West 296 341 8,500 -1,091 Descending Memphis Center
Mon 03:07:03 PM 36.3731 -86.2872 248° West 291 335 7,600 -1,050 Descending Memphis Center
Mon 03:08:03 PM 36.3469 -86.3761 250° West 286 329 6,400 -1,300 Descending Memphis Center
Mon 03:09:03 PM 36.3203 -86.4600 248° West 274 315 5,000 -1,400 Descending Memphis Center
Mon 03:10:03 PM 36.2767 -86.5314 233° Southwest 268 308 3,600 -1,400 Descending Memphis Center

Login

Don't have an account? Register now (free) for customized features, flight alerts, and more!